Columbus, Ohio
Traffic Map
Current Weather Conditions
Columbus, Ohio
Overcast Light Snow
Overcast
25°
Feels Like: 14°
Wind Chill: 14° Ceiling: 1600
Heat Index: 25° Visibility: 4mi
Dew Point: 19° Wind: 12mph
Humidity: 80% Direction: 250° (WSW)
Pressure: 29.74in Gusts: 0mph
Raw Report DataKCMH 092212Z 25010KT 4SM -SN BKN016 OVC023 M04/M07 A2974 RMK AO2 P0000
Traffic Incident Summary
Active as of:
Severity:
Category:
InformationThere was an issue retrieving the traffic information for this location. Please try a different location or try again shortly.
Advertisements
Track Severe Weather on mobile